createdAt,value
2022-09-15T00:00:31.000Z,994.8
2022-09-15T00:01:44.000Z,994.7
2022-09-15T00:02:56.000Z,994.7
2022-09-15T00:04:08.000Z,994.7
2022-09-15T00:05:20.000Z,994.7
2022-09-15T00:06:32.000Z,994.7
2022-09-15T00:07:45.000Z,994.7
2022-09-15T00:10:09.000Z,994.7
2022-09-15T00:11:21.000Z,994.7
2022-09-15T00:12:33.000Z,994.7
2022-09-15T00:13:45.000Z,994.7
2022-09-15T00:14:37.029Z,994.7
2022-09-15T00:14:58.000Z,994.7
2022-09-15T00:16:09.000Z,994.7
2022-09-15T00:17:21.000Z,994.7
2022-09-15T00:18:33.000Z,994.7
2022-09-15T00:19:45.000Z,994.8
2022-09-15T00:20:58.000Z,994.8
2022-09-15T00:22:10.000Z,994.7
2022-09-15T00:23:22.000Z,994.7
2022-09-15T00:24:34.000Z,994.7
2022-09-15T00:25:46.000Z,994.6
2022-09-15T00:26:59.000Z,994.7
2022-09-15T00:28:11.000Z,994.7
2022-09-15T00:29:23.000Z,994.7
2022-09-15T00:31:46.000Z,994.7
2022-09-15T00:32:58.000Z,994.8
2022-09-15T00:34:11.000Z,994.8
2022-09-15T00:35:23.000Z,994.8
2022-09-15T00:36:15.411Z,994.7
2022-09-15T00:36:35.000Z,994.8
2022-09-15T00:37:47.000Z,994.7
2022-09-15T00:38:58.000Z,994.8
2022-09-15T00:40:11.000Z,994.8
2022-09-15T00:41:23.000Z,994.8
2022-09-15T00:42:35.000Z,994.8
2022-09-15T00:43:47.000Z,994.7
2022-09-15T00:44:59.000Z,994.7
2022-09-15T00:46:12.000Z,994.7
2022-09-15T00:47:24.000Z,994.8
2022-09-15T00:48:36.000Z,994.8
2022-09-15T00:49:48.000Z,994.7
2022-09-15T00:51:00.000Z,994.7
2022-09-15T00:52:12.000Z,994.7
2022-09-15T00:53:25.000Z,994.8
2022-09-15T00:54:36.000Z,994.8
2022-09-15T00:55:48.000Z,994.8
2022-09-15T00:57:00.000Z,994.8
2022-09-15T00:58:12.000Z,994.9
2022-09-15T00:59:25.000Z,994.8
2022-09-15T01:00:37.000Z,994.8
2022-09-15T01:01:49.000Z,994.8
2022-09-15T01:03:01.000Z,994.8
2022-09-15T01:04:13.000Z,994.9
2022-09-15T01:05:26.000Z,994.8
2022-09-15T01:06:38.000Z,994.8
2022-09-15T01:07:50.000Z,994.7
2022-09-15T01:09:02.000Z,994.7
2022-09-15T01:10:13.000Z,994.7
2022-09-15T01:11:25.000Z,994.7
2022-09-15T01:12:38.000Z,994.7
2022-09-15T01:13:50.000Z,994.7
2022-09-15T01:15:02.000Z,994.7
2022-09-15T01:16:14.000Z,994.7
2022-09-15T01:17:26.000Z,994.7
2022-09-15T01:18:39.000Z,994.7
2022-09-15T01:19:51.000Z,994.7
2022-09-15T01:21:03.000Z,994.8
2022-09-15T01:22:15.000Z,994.7
2022-09-15T01:23:27.000Z,994.8
2022-09-15T01:24:40.000Z,994.8
2022-09-15T01:25:51.000Z,994.8
2022-09-15T01:27:03.000Z,994.8
2022-09-15T01:28:15.000Z,994.8
2022-09-15T01:29:27.000Z,994.8
2022-09-15T01:30:39.000Z,994.8
2022-09-15T01:31:52.000Z,994.9
2022-09-15T01:33:04.000Z,994.9
2022-09-15T01:34:16.000Z,994.9
2022-09-15T01:35:28.000Z,994.9
2022-09-15T01:36:40.000Z,994.9
2022-09-15T01:37:53.000Z,994.8
2022-09-15T01:39:05.000Z,994.8
2022-09-15T01:40:17.000Z,994.8
2022-09-15T01:41:28.000Z,994.8
2022-09-15T01:42:40.000Z,994.8
2022-09-15T01:43:52.000Z,994.8
2022-09-15T01:45:05.000Z,994.8
2022-09-15T01:46:17.000Z,994.8
2022-09-15T01:47:29.000Z,994.8
2022-09-15T01:48:41.000Z,994.8
2022-09-15T01:49:53.000Z,994.8
2022-09-15T01:51:06.000Z,994.8
2022-09-15T01:52:18.000Z,994.8
2022-09-15T01:53:30.000Z,994.8
2022-09-15T01:54:42.000Z,994.8
2022-09-15T01:55:54.000Z,994.8
2022-09-15T01:57:06.000Z,994.8
2022-09-15T01:58:18.000Z,994.7
2022-09-15T01:59:30.000Z,994.8
2022-09-15T02:00:42.000Z,994.8
2022-09-15T02:01:54.000Z,994.7
2022-09-15T02:03:06.000Z,994.7
2022-09-15T02:04:19.000Z,994.8
2022-09-15T02:05:31.000Z,994.8
2022-09-15T02:06:43.000Z,994.8
2022-09-15T02:07:55.000Z,994.8
2022-09-15T02:09:07.000Z,994.8
2022-09-15T02:10:20.000Z,994.9
2022-09-15T02:11:32.000Z,994.8
2022-09-15T02:12:43.000Z,994.8
2022-09-15T02:13:55.000Z,994.8
2022-09-15T02:15:07.000Z,994.7
2022-09-15T02:16:19.000Z,994.7
2022-09-15T02:17:32.000Z,994.7
2022-09-15T02:18:44.000Z,994.7
2022-09-15T02:19:56.000Z,994.7
2022-09-15T02:21:08.000Z,994.7
2022-09-15T02:22:20.000Z,994.7
2022-09-15T02:23:33.000Z,994.7
2022-09-15T02:24:45.000Z,994.7
2022-09-15T02:25:57.000Z,994.7
2022-09-15T02:27:09.000Z,994.7
2022-09-15T02:28:20.000Z,994.7
2022-09-15T02:29:33.000Z,994.7
2022-09-15T02:30:45.000Z,994.6
2022-09-15T02:31:57.000Z,994.7
2022-09-15T02:33:09.000Z,994.6
2022-09-15T02:34:21.000Z,994.6
2022-09-15T02:35:33.000Z,994.7
2022-09-15T02:37:58.000Z,994.6
2022-09-15T02:39:10.000Z,994.7
2022-09-15T02:40:22.000Z,994.6
2022-09-15T02:41:34.000Z,994.7
2022-09-15T02:42:26.022Z,994.6
2022-09-15T02:42:47.000Z,994.6
2022-09-15T02:43:58.000Z,994.6
2022-09-15T02:45:10.000Z,994.7
2022-09-15T02:46:22.000Z,994.6
2022-09-15T02:47:34.000Z,994.6
2022-09-15T02:48:46.000Z,994.6
2022-09-15T02:49:59.000Z,994.6
2022-09-15T02:51:11.000Z,994.6
2022-09-15T02:52:23.000Z,994.6
2022-09-15T02:53:35.000Z,994.7
2022-09-15T02:54:47.000Z,994.5
2022-09-15T02:56:00.000Z,994.5
2022-09-15T02:57:12.000Z,994.5
2022-09-15T02:58:24.000Z,994.5
2022-09-15T02:59:35.000Z,994.5
2022-09-15T03:00:47.000Z,994.5
2022-09-15T03:02:00.000Z,994.6
2022-09-15T03:03:12.000Z,994.6
2022-09-15T03:04:24.000Z,994.6
2022-09-15T03:05:36.000Z,994.6
2022-09-15T03:06:48.000Z,994.6
2022-09-15T03:08:00.000Z,994.6
2022-09-15T03:09:13.000Z,994.6
2022-09-15T03:10:25.000Z,994.6
2022-09-15T03:11:37.000Z,994.6
2022-09-15T03:12:49.000Z,994.6
2022-09-15T03:14:01.000Z,994.6
2022-09-15T03:15:13.000Z,994.5
2022-09-15T03:16:25.000Z,994.6
2022-09-15T03:17:37.000Z,994.6
2022-09-15T03:18:49.000Z,994.5
2022-09-15T03:20:01.000Z,994.6
2022-09-15T03:21:13.000Z,994.6
2022-09-15T03:22:26.000Z,994.6
2022-09-15T03:23:38.000Z,994.6
2022-09-15T03:24:50.000Z,994.6
2022-09-15T03:26:02.000Z,994.6
2022-09-15T03:27:14.000Z,994.6
2022-09-15T03:29:39.000Z,994.6
2022-09-15T03:30:50.000Z,994.7
2022-09-15T03:32:02.000Z,994.7
2022-09-15T03:33:14.000Z,994.7
2022-09-15T03:34:07.029Z,994.6
2022-09-15T03:34:27.000Z,994.7
2022-09-15T03:35:39.000Z,994.7
2022-09-15T03:36:51.000Z,994.7
2022-09-15T03:38:03.000Z,994.7
2022-09-15T03:39:15.000Z,994.7
2022-09-15T03:40:27.000Z,994.7
2022-09-15T03:41:40.000Z,994.7
2022-09-15T03:42:52.000Z,994.7
2022-09-15T03:44:04.000Z,994.7
2022-09-15T03:45:16.000Z,994.7
2022-09-15T03:46:27.000Z,994.7
2022-09-15T03:47:40.000Z,994.7
2022-09-15T03:48:52.000Z,994.7
2022-09-15T03:50:04.000Z,994.7
2022-09-15T03:51:16.000Z,994.8
2022-09-15T03:52:28.000Z,994.7
2022-09-15T03:53:40.000Z,994.7
2022-09-15T03:54:53.000Z,994.7
2022-09-15T03:56:05.000Z,994.7
2022-09-15T03:57:17.000Z,994.8
2022-09-15T03:58:29.000Z,994.8
2022-09-15T03:59:41.000Z,994.7
2022-09-15T04:00:54.000Z,994.8
2022-09-15T04:02:05.000Z,994.8
2022-09-15T04:03:17.000Z,994.7
2022-09-15T04:04:29.000Z,994.7
2022-09-15T04:05:41.000Z,994.7
2022-09-15T04:06:54.000Z,994.7
2022-09-15T04:08:06.000Z,994.7
2022-09-15T04:09:18.000Z,994.8
2022-09-15T04:10:30.000Z,994.8
2022-09-15T04:11:42.000Z,994.8
2022-09-15T04:12:54.000Z,994.8
2022-09-15T04:14:07.000Z,994.8
2022-09-15T04:15:19.000Z,994.8
2022-09-15T04:16:31.000Z,994.8
2022-09-15T04:17:42.000Z,994.8
2022-09-15T04:18:54.000Z,994.8
2022-09-15T04:20:07.000Z,994.8
2022-09-15T04:21:19.000Z,994.8
2022-09-15T04:22:31.000Z,994.8
2022-09-15T04:23:43.000Z,994.8
2022-09-15T04:24:55.000Z,994.8
2022-09-15T04:26:08.000Z,994.8
2022-09-15T04:27:20.000Z,994.7
2022-09-15T04:28:32.000Z,994.7
2022-09-15T04:29:44.000Z,994.7
2022-09-15T04:30:56.000Z,994.7
2022-09-15T04:32:08.000Z,994.7
2022-09-15T04:33:20.000Z,994.7
2022-09-15T04:34:32.000Z,994.7
2022-09-15T04:35:44.000Z,994.8
2022-09-15T04:36:56.000Z,994.8
2022-09-15T04:38:08.000Z,994.8
2022-09-15T04:39:21.000Z,994.9
2022-09-15T04:40:32.000Z,994.8
2022-09-15T04:41:44.000Z,994.8
2022-09-15T04:42:56.000Z,994.8
2022-09-15T04:44:08.000Z,994.8
2022-09-15T04:45:20.000Z,994.8
2022-09-15T04:46:33.000Z,994.8
2022-09-15T04:47:45.000Z,994.9
2022-09-15T04:48:57.000Z,994.9
2022-09-15T04:50:09.000Z,994.9
2022-09-15T04:51:21.000Z,994.9
2022-09-15T04:52:34.000Z,994.9
2022-09-15T04:53:46.000Z,994.9
2022-09-15T04:54:58.000Z,994.9
2022-09-15T04:56:09.000Z,994.9
2022-09-15T04:57:21.000Z,995
2022-09-15T04:58:34.000Z,995
2022-09-15T04:59:46.000Z,995
2022-09-15T05:00:58.000Z,995
2022-09-15T05:02:10.000Z,994.9
2022-09-15T05:03:22.000Z,995
2022-09-15T05:04:34.000Z,995
2022-09-15T05:05:47.000Z,995
2022-09-15T05:06:59.000Z,995
2022-09-15T05:08:11.000Z,995.1
2022-09-15T05:09:23.000Z,995.1
2022-09-15T05:10:35.000Z,995.1
2022-09-15T05:11:47.000Z,995.1
2022-09-15T05:12:59.000Z,995.1
2022-09-15T05:14:11.000Z,995.1
2022-09-15T05:15:23.000Z,995.2
2022-09-15T05:16:35.000Z,995.2
2022-09-15T05:17:47.000Z,995.1
2022-09-15T05:19:00.000Z,995.1
2022-09-15T05:20:12.000Z,995.2
2022-09-15T05:21:24.000Z,995.2
2022-09-15T05:22:36.000Z,995.1
2022-09-15T05:23:48.000Z,995.1
2022-09-15T05:25:01.000Z,995.2
2022-09-15T05:26:13.000Z,995.1
2022-09-15T05:27:24.000Z,995.1
2022-09-15T05:28:36.000Z,995.1
2022-09-15T05:29:48.000Z,995.1
2022-09-15T05:32:13.000Z,995.2
2022-09-15T05:33:25.000Z,995.2
2022-09-15T05:34:37.000Z,995.2
2022-09-15T05:35:49.000Z,995.2
2022-09-15T05:36:41.035Z,995.2
2022-09-15T05:37:01.000Z,995.2
2022-09-15T05:38:14.000Z,995.2
2022-09-15T05:39:26.000Z,995.2
2022-09-15T05:40:38.000Z,995.2
2022-09-15T05:41:50.000Z,995.2
2022-09-15T05:44:14.000Z,995.3
2022-09-15T05:45:26.000Z,995.1
2022-09-15T05:46:38.000Z,995.1
2022-09-15T05:47:50.000Z,995.1
2022-09-15T05:48:41.910Z,995.2
2022-09-15T05:49:02.000Z,995.1
2022-09-15T05:50:14.000Z,995.2
2022-09-15T05:51:27.000Z,995.1
2022-09-15T05:52:39.000Z,995.1
2022-09-15T05:53:51.000Z,995.1
2022-09-15T05:55:03.000Z,995.1
2022-09-15T05:56:15.000Z,995.1
2022-09-15T05:57:28.000Z,995.1
2022-09-15T05:58:39.000Z,995.1
2022-09-15T05:59:51.000Z,995.1
2022-09-15T06:01:03.000Z,995.1
2022-09-15T06:02:15.000Z,995.2
2022-09-15T06:03:28.000Z,995.1
2022-09-15T06:04:40.000Z,995.2
2022-09-15T06:05:52.000Z,995.3
2022-09-15T06:07:04.000Z,995.2
2022-09-15T06:08:16.000Z,995.2
2022-09-15T06:09:28.000Z,995.3
2022-09-15T06:10:41.000Z,995.3
2022-09-15T06:11:53.000Z,995.2
2022-09-15T06:13:05.000Z,995.2
2022-09-15T06:14:16.000Z,995.3
2022-09-15T06:15:28.000Z,995.3
2022-09-15T06:17:53.000Z,995.3
2022-09-15T06:19:05.000Z,995.3
2022-09-15T06:20:17.000Z,995.2
2022-09-15T06:21:29.000Z,995.3
2022-09-15T06:22:21.118Z,995.3
2022-09-15T06:22:41.000Z,995.3
2022-09-15T06:23:54.000Z,995.2
2022-09-15T06:25:06.000Z,995.3
2022-09-15T06:26:18.000Z,995.3
2022-09-15T06:27:30.000Z,995.3
2022-09-15T06:28:42.000Z,995.3
2022-09-15T06:29:54.000Z,995.3
2022-09-15T06:31:06.000Z,995.3
2022-09-15T06:32:18.000Z,995.3
2022-09-15T06:33:30.000Z,995.3
2022-09-15T06:34:42.000Z,995.3
2022-09-15T06:35:55.000Z,995.3
2022-09-15T06:37:07.000Z,995.3
2022-09-15T06:38:19.000Z,995.3
2022-09-15T06:39:31.000Z,995.3
2022-09-15T06:40:43.000Z,995.3
2022-09-15T06:41:55.000Z,995.3
2022-09-15T06:43:08.000Z,995.3
2022-09-15T06:44:20.000Z,995.3
2022-09-15T06:45:31.000Z,995.3
2022-09-15T06:46:43.000Z,995.3
2022-09-15T06:47:55.000Z,995.3
2022-09-15T06:49:08.000Z,995.3
2022-09-15T06:50:20.000Z,995.3
2022-09-15T06:51:32.000Z,995.4
2022-09-15T06:52:44.000Z,995.4
2022-09-15T06:53:56.000Z,995.4
2022-09-15T06:55:09.000Z,995.4
2022-09-15T06:56:21.000Z,995.4
2022-09-15T06:57:33.000Z,995.4
2022-09-15T06:58:45.000Z,995.4
2022-09-15T06:59:57.000Z,995.4
2022-09-15T07:01:08.000Z,995.4
2022-09-15T07:02:21.000Z,995.3
2022-09-15T07:03:33.000Z,995.3
2022-09-15T07:04:45.000Z,995.3
2022-09-15T07:05:57.000Z,995.4
2022-09-15T07:07:09.000Z,995.4
2022-09-15T07:08:22.000Z,995.4
2022-09-15T07:09:34.000Z,995.4
2022-09-15T07:10:46.000Z,995.4
2022-09-15T07:11:58.000Z,995.4
2022-09-15T07:13:10.000Z,995.4
2022-09-15T07:14:22.000Z,995.5
2022-09-15T07:15:35.000Z,995.4
2022-09-15T07:16:46.000Z,995.5
2022-09-15T07:17:58.000Z,995.5
2022-09-15T07:19:10.000Z,995.5
2022-09-15T07:20:22.000Z,995.5
2022-09-15T07:21:35.000Z,995.5
2022-09-15T07:22:47.000Z,995.6
2022-09-15T07:23:59.000Z,995.6
2022-09-15T07:25:11.000Z,995.6
2022-09-15T07:26:23.000Z,995.6
2022-09-15T07:27:36.000Z,995.6
2022-09-15T07:28:48.000Z,995.6
2022-09-15T07:30:00.000Z,995.6
2022-09-15T07:31:12.000Z,995.6
2022-09-15T07:32:23.000Z,995.6
2022-09-15T07:33:35.000Z,995.6
2022-09-15T07:34:48.000Z,995.7
2022-09-15T07:36:00.000Z,995.6
2022-09-15T07:37:12.000Z,995.6
2022-09-15T07:38:24.000Z,995.6
2022-09-15T07:39:36.000Z,995.6
2022-09-15T07:40:49.000Z,995.6
2022-09-15T07:42:01.000Z,995.6
2022-09-15T07:43:13.000Z,995.6
2022-09-15T07:44:25.000Z,995.6
2022-09-15T07:46:49.000Z,995.6
2022-09-15T07:48:01.000Z,995.6
2022-09-15T07:49:13.000Z,995.6
2022-09-15T07:50:25.000Z,995.6
2022-09-15T07:51:17.890Z,995.6
2022-09-15T07:51:37.000Z,995.6
2022-09-15T07:52:49.000Z,995.6
2022-09-15T07:54:02.000Z,995.7
2022-09-15T07:55:14.000Z,995.7
2022-09-15T07:56:26.000Z,995.8
2022-09-15T07:57:38.000Z,995.7
2022-09-15T07:58:50.000Z,995.8
2022-09-15T08:00:03.000Z,995.8
2022-09-15T08:01:15.000Z,995.8
2022-09-15T08:02:27.000Z,995.8
2022-09-15T08:03:38.000Z,995.8
2022-09-15T08:04:50.000Z,995.8
2022-09-15T08:06:02.000Z,995.8
2022-09-15T08:07:15.000Z,995.8
2022-09-15T08:08:27.000Z,995.8
2022-09-15T08:09:39.000Z,995.8
2022-09-15T08:10:51.000Z,995.8
2022-09-15T08:12:03.000Z,995.7
2022-09-15T08:13:16.000Z,995.7
2022-09-15T08:14:28.000Z,995.8
2022-09-15T08:15:40.000Z,995.8
2022-09-15T08:16:52.000Z,995.8
2022-09-15T08:18:04.000Z,995.8
2022-09-15T08:19:15.000Z,995.8
2022-09-15T08:20:28.000Z,995.8
2022-09-15T08:21:40.000Z,995.8
2022-09-15T08:22:52.000Z,995.8
2022-09-15T08:24:04.000Z,995.9
2022-09-15T08:25:16.000Z,995.8
2022-09-15T08:26:29.000Z,995.9
2022-09-15T08:27:41.000Z,995.8
2022-09-15T08:28:53.000Z,995.8
2022-09-15T08:30:05.000Z,995.8
2022-09-15T08:31:17.000Z,995.9
2022-09-15T08:32:30.000Z,995.9
2022-09-15T08:33:42.000Z,995.9
2022-09-15T08:34:53.000Z,995.9
2022-09-15T08:36:05.000Z,995.9
2022-09-15T08:37:17.000Z,995.9
2022-09-15T08:38:29.000Z,995.9
2022-09-15T08:39:42.000Z,995.9
2022-09-15T08:40:54.000Z,995.8
2022-09-15T08:43:17.000Z,995.9
2022-09-15T08:44:29.000Z,995.9
2022-09-15T08:45:42.000Z,995.8
2022-09-15T08:46:54.000Z,995.9
2022-09-15T08:47:45.000Z,995.9
2022-09-15T08:48:06.000Z,995.9
2022-09-15T08:49:18.000Z,995.9
2022-09-15T08:50:30.000Z,995.9
2022-09-15T08:51:42.000Z,995.9
2022-09-15T08:52:55.000Z,995.8
2022-09-15T08:54:07.000Z,995.8
2022-09-15T08:55:19.000Z,995.8
2022-09-15T08:56:31.000Z,995.8
2022-09-15T08:57:42.000Z,995.8
2022-09-15T08:58:55.000Z,995.9
2022-09-15T09:00:07.000Z,995.8
2022-09-15T09:01:19.000Z,995.9
2022-09-15T09:02:31.000Z,995.8
2022-09-15T09:03:43.000Z,995.9
2022-09-15T09:04:56.000Z,995.8
2022-09-15T09:06:08.000Z,995.9
2022-09-15T09:07:20.000Z,995.9
2022-09-15T09:08:32.000Z,995.9
2022-09-15T09:09:44.000Z,995.9
2022-09-15T09:10:56.000Z,995.9
2022-09-15T09:12:09.000Z,995.9
2022-09-15T09:13:20.000Z,995.9
2022-09-15T09:14:32.000Z,995.9
2022-09-15T09:15:44.000Z,995.9
2022-09-15T09:16:56.000Z,995.9
2022-09-15T09:18:09.000Z,995.8
2022-09-15T09:19:21.000Z,995.8
2022-09-15T09:20:33.000Z,995.9
2022-09-15T09:21:45.000Z,995.9
2022-09-15T09:22:57.000Z,995.9
2022-09-15T09:24:09.000Z,995.9
2022-09-15T09:25:22.000Z,995.8
2022-09-15T09:26:34.000Z,995.8
2022-09-15T09:27:46.000Z,995.8
2022-09-15T09:28:57.000Z,995.8
2022-09-15T09:30:09.000Z,995.8
2022-09-15T09:31:22.000Z,995.7
2022-09-15T09:32:34.000Z,995.7
2022-09-15T09:33:46.000Z,995.8
2022-09-15T09:34:58.000Z,995.7
2022-09-15T09:36:10.000Z,995.7
2022-09-15T09:37:23.000Z,995.8
2022-09-15T09:38:35.000Z,995.7
2022-09-15T09:39:47.000Z,995.8
2022-09-15T09:40:59.000Z,995.7
2022-09-15T09:42:11.000Z,995.7
2022-09-15T09:43:23.000Z,995.7
2022-09-15T09:44:35.000Z,995.7
2022-09-15T09:45:47.000Z,995.7
2022-09-15T09:46:59.000Z,995.7
2022-09-15T09:48:11.000Z,995.7
2022-09-15T09:49:23.000Z,995.7
2022-09-15T09:50:36.000Z,995.7
2022-09-15T09:51:48.000Z,995.6
2022-09-15T09:53:00.000Z,995.7
2022-09-15T09:54:12.000Z,995.7
2022-09-15T09:55:24.000Z,995.7
2022-09-15T09:56:36.000Z,995.7
2022-09-15T09:57:49.000Z,995.8
2022-09-15T09:59:01.000Z,995.7
2022-09-15T10:01:24.000Z,995.7
2022-09-15T10:02:36.000Z,995.6
2022-09-15T10:03:49.000Z,995.7
2022-09-15T10:05:01.000Z,995.7
2022-09-15T10:05:52.000Z,995.7
2022-09-15T10:06:13.000Z,995.8
2022-09-15T10:07:25.000Z,995.7
2022-09-15T10:08:37.000Z,995.7
2022-09-15T10:09:49.000Z,995.7
2022-09-15T10:11:02.000Z,995.6
2022-09-15T10:12:14.000Z,995.7
2022-09-15T10:13:26.000Z,995.7
2022-09-15T10:14:38.000Z,995.8
2022-09-15T10:15:49.000Z,995.8
2022-09-15T10:17:02.000Z,995.7
2022-09-15T10:18:14.000Z,995.7
2022-09-15T10:19:26.000Z,995.7
2022-09-15T10:20:38.000Z,995.7
2022-09-15T10:21:50.000Z,995.8
2022-09-15T10:23:03.000Z,995.8
2022-09-15T10:24:15.000Z,995.8
2022-09-15T10:25:27.000Z,995.8
2022-09-15T10:26:39.000Z,995.7
2022-09-15T10:27:51.000Z,995.8
2022-09-15T10:29:03.000Z,995.8
2022-09-15T10:30:16.000Z,995.7
2022-09-15T10:31:27.000Z,995.8
2022-09-15T10:32:39.000Z,995.8
2022-09-15T10:33:51.000Z,995.8
2022-09-15T10:35:03.000Z,995.8
2022-09-15T10:36:16.000Z,995.8
2022-09-15T10:37:28.000Z,995.8
2022-09-15T10:38:40.000Z,995.8
2022-09-15T10:39:52.000Z,995.8
2022-09-15T10:41:04.000Z,995.8
2022-09-15T10:42:16.000Z,995.8
2022-09-15T10:43:29.000Z,995.8
2022-09-15T10:44:41.000Z,995.8
2022-09-15T10:45:53.000Z,995.8
2022-09-15T10:47:04.000Z,995.8
2022-09-15T10:48:16.000Z,995.8
2022-09-15T10:49:29.000Z,995.8
2022-09-15T10:50:41.000Z,995.8
2022-09-15T10:51:53.000Z,995.8
2022-09-15T10:53:05.000Z,995.8
2022-09-15T10:54:17.000Z,995.8
2022-09-15T10:55:30.000Z,995.8
2022-09-15T10:56:42.000Z,995.8
2022-09-15T10:57:54.000Z,995.9
2022-09-15T10:59:06.000Z,995.9
2022-09-15T11:00:18.000Z,995.8
2022-09-15T11:01:30.000Z,995.9
2022-09-15T11:02:42.000Z,995.8
2022-09-15T11:03:54.000Z,995.8
2022-09-15T11:05:06.000Z,995.8
2022-09-15T11:06:18.000Z,995.8
2022-09-15T11:07:30.000Z,995.9
2022-09-15T11:08:43.000Z,995.9
2022-09-15T11:11:07.000Z,995.9
2022-09-15T11:12:19.000Z,995.9
2022-09-15T11:13:31.000Z,995.9
2022-09-15T11:14:44.000Z,995.9
2022-09-15T11:15:35.534Z,995.9
2022-09-15T11:15:56.000Z,996
2022-09-15T11:17:08.000Z,996
2022-09-15T11:18:19.000Z,996
2022-09-15T11:19:31.000Z,995.9
2022-09-15T11:20:43.000Z,996
2022-09-15T11:21:56.000Z,995.9
2022-09-15T11:23:08.000Z,995.9
2022-09-15T11:24:20.000Z,995.9
2022-09-15T11:25:32.000Z,995.9
2022-09-15T11:26:44.000Z,995.8
2022-09-15T11:27:57.000Z,995.9
2022-09-15T11:29:09.000Z,995.8
2022-09-15T11:30:21.000Z,995.8
2022-09-15T11:31:33.000Z,995.9
2022-09-15T11:38:26.080Z,995.8
2022-09-15T11:39:37.274Z,995.8
2022-09-15T11:40:49.455Z,995.8
2022-09-15T11:42:01.641Z,995.8
2022-09-15T11:43:13.838Z,995.8
2022-09-15T11:44:26.013Z,995.8
2022-09-15T11:45:38.199Z,995.8
2022-09-15T11:46:50.396Z,995.8
2022-09-15T11:48:02.583Z,995.8
2022-09-15T11:49:14.771Z,995.8
2022-09-15T11:50:26.946Z,995.8
2022-09-15T11:51:39.138Z,995.7
2022-09-15T11:52:51.312Z,995.8
2022-09-15T11:54:03.506Z,995.8
2022-09-15T11:55:14.000Z,995.8
2022-09-15T11:56:26.000Z,995.8
2022-09-15T11:57:39.000Z,995.8
2022-09-15T11:58:51.000Z,995.8
2022-09-15T11:59:11.000Z,995.8
2022-09-15T12:00:03.438Z,995.8
2022-09-15T12:00:24.000Z,995.7
2022-09-15T12:01:15.662Z,995.8
2022-09-15T12:01:36.000Z,995.8
2022-09-15T12:02:27.000Z,995.8
2022-09-15T12:02:48.000Z,995.8
2022-09-15T12:03:40.014Z,995.7
2022-09-15T12:04:00.000Z,995.8
2022-09-15T12:05:11.000Z,995.8
2022-09-15T12:06:24.000Z,995.8
2022-09-15T12:07:36.000Z,995.8
2022-09-15T12:08:48.000Z,995.8
2022-09-15T12:10:00.000Z,995.7
2022-09-15T12:11:12.000Z,995.8
2022-09-15T12:12:24.000Z,995.7
2022-09-15T12:13:37.000Z,995.8
2022-09-15T12:14:49.000Z,995.8
2022-09-15T12:16:01.000Z,995.7
2022-09-15T12:17:13.000Z,995.7
2022-09-15T12:18:25.000Z,995.7
2022-09-15T12:19:38.000Z,995.8
2022-09-15T12:20:49.000Z,995.7
2022-09-15T12:22:01.000Z,995.7
2022-09-15T12:23:13.000Z,995.7
2022-09-15T12:24:25.000Z,995.8
2022-09-15T12:25:37.000Z,995.8
2022-09-15T12:26:50.000Z,995.7
2022-09-15T12:28:02.000Z,995.7
2022-09-15T12:29:14.000Z,995.7
2022-09-15T12:30:26.000Z,995.7
2022-09-15T12:31:38.000Z,995.7
2022-09-15T12:32:51.000Z,995.7
2022-09-15T12:34:03.000Z,995.7
2022-09-15T12:35:15.000Z,995.7
2022-09-15T12:36:26.000Z,995.7
2022-09-15T12:37:38.000Z,995.8
2022-09-15T12:38:51.000Z,995.7
2022-09-15T12:40:03.000Z,995.7
2022-09-15T12:41:15.000Z,995.7
2022-09-15T12:42:27.000Z,995.7
2022-09-15T12:43:38.000Z,995.8
2022-09-15T12:44:50.000Z,995.8
2022-09-15T12:46:03.000Z,995.8
2022-09-15T12:47:15.000Z,995.8
2022-09-15T12:48:27.000Z,995.8
2022-09-15T12:49:39.000Z,995.9
2022-09-15T12:50:51.000Z,995.8
2022-09-15T12:53:16.000Z,995.9
2022-09-15T12:54:28.000Z,995.9
2022-09-15T12:55:40.000Z,995.9
2022-09-15T12:56:52.000Z,995.9
2022-09-15T12:57:44.413Z,995.8
2022-09-15T12:58:04.000Z,995.9
2022-09-15T12:59:16.000Z,995.9
2022-09-15T13:00:28.000Z,995.9
2022-09-15T13:01:40.000Z,995.9
2022-09-15T13:02:52.000Z,995.9
2022-09-15T13:04:04.000Z,995.9
2022-09-15T13:05:17.000Z,995.9
2022-09-15T13:06:29.000Z,995.9
2022-09-15T13:07:41.000Z,995.9
2022-09-15T13:08:53.000Z,996
2022-09-15T13:10:05.000Z,996
2022-09-15T13:11:18.000Z,995.9
2022-09-15T13:12:30.000Z,995.9
2022-09-15T13:13:42.000Z,995.8
2022-09-15T13:14:53.000Z,995.9
2022-09-15T13:16:05.000Z,995.8
2022-09-15T13:17:17.000Z,995.8
2022-09-15T13:18:30.000Z,995.8
2022-09-15T13:19:42.000Z,995.8
2022-09-15T13:20:54.000Z,995.9
2022-09-15T13:22:06.000Z,995.8
2022-09-15T13:23:18.000Z,995.8
2022-09-15T13:24:31.000Z,995.8
2022-09-15T13:25:43.000Z,995.9
2022-09-15T13:26:55.000Z,995.9
2022-09-15T13:28:07.000Z,995.9
2022-09-15T13:29:19.000Z,995.9
2022-09-15T13:30:31.000Z,995.9
2022-09-15T13:31:43.000Z,995.8
2022-09-15T13:32:55.000Z,995.8
2022-09-15T13:34:07.000Z,995.8
2022-09-15T13:35:19.000Z,995.8
2022-09-15T13:36:31.000Z,995.9
2022-09-15T13:37:44.000Z,995.8
2022-09-15T13:38:56.000Z,995.7
2022-09-15T13:40:08.000Z,995.7
2022-09-15T13:42:32.000Z,995.6
2022-09-15T13:43:45.000Z,995.7
2022-09-15T13:46:08.000Z,995.7
2022-09-15T13:47:01.000Z,995.8
2022-09-15T13:47:20.000Z,995.8
2022-09-15T13:48:32.000Z,995.7
2022-09-15T13:49:45.000Z,995.7
2022-09-15T13:50:37.000Z,995.7
2022-09-15T13:50:57.000Z,995.7
2022-09-15T13:52:09.000Z,995.7
2022-09-15T13:53:21.000Z,995.7
2022-09-15T13:54:33.000Z,995.7
2022-09-15T13:55:45.000Z,995.7
2022-09-15T13:56:58.000Z,995.7
2022-09-15T13:58:10.000Z,995.6
2022-09-15T13:59:22.000Z,995.6
2022-09-15T14:00:34.000Z,995.6
2022-09-15T14:01:45.000Z,995.6
2022-09-15T14:02:58.000Z,995.7
2022-09-15T14:04:10.000Z,995.6
2022-09-15T14:05:22.000Z,995.6
2022-09-15T14:06:34.000Z,995.6
2022-09-15T14:07:46.000Z,995.6
2022-09-15T14:10:11.000Z,995.6
2022-09-15T14:11:23.000Z,995.5
2022-09-15T14:12:35.000Z,995.5
2022-09-15T14:13:47.000Z,995.5
2022-09-15T14:14:39.377Z,995.6
2022-09-15T14:14:59.000Z,995.4
2022-09-15T14:16:12.000Z,995.5
2022-09-15T14:17:23.000Z,995.4
2022-09-15T14:18:35.000Z,995.3
2022-09-15T14:19:47.000Z,995.4
2022-09-15T14:20:59.000Z,995.3
2022-09-15T14:22:12.000Z,995.3
2022-09-15T14:23:24.000Z,995.4
2022-09-15T14:24:36.000Z,995.5
2022-09-15T14:25:48.000Z,995.5
2022-09-15T14:27:00.000Z,995.5
2022-09-15T14:28:12.000Z,995.4
2022-09-15T14:29:25.000Z,995.4
2022-09-15T14:30:37.000Z,995.4
2022-09-15T14:31:49.000Z,995.4
2022-09-15T14:33:00.000Z,995.5
2022-09-15T14:34:12.000Z,995.4
2022-09-15T14:35:25.000Z,995.5
2022-09-15T14:36:37.000Z,995.5
2022-09-15T14:37:49.000Z,995.5
2022-09-15T14:39:01.000Z,995.5
2022-09-15T14:40:13.000Z,995.5
2022-09-15T14:41:25.000Z,995.5
2022-09-15T14:42:38.000Z,995.5
2022-09-15T14:43:50.000Z,995.5
2022-09-15T14:45:02.000Z,995.5
2022-09-15T14:46:14.000Z,995.5
2022-09-15T14:47:26.000Z,995.5
2022-09-15T14:48:38.000Z,995.4
2022-09-15T14:49:50.000Z,995.4
2022-09-15T14:51:02.000Z,995.4
2022-09-15T14:52:14.000Z,995.4
2022-09-15T14:53:26.000Z,995.4
2022-09-15T14:54:39.000Z,995.4
2022-09-15T14:55:51.000Z,995.4
2022-09-15T14:57:03.000Z,995.4
2022-09-15T14:58:15.000Z,995.4
2022-09-15T14:59:27.000Z,995.4
2022-09-15T15:00:39.000Z,995.4
2022-09-15T15:01:52.000Z,995.4
2022-09-15T15:03:04.000Z,995.5
2022-09-15T15:04:15.000Z,995.4
2022-09-15T15:05:27.000Z,995.4
2022-09-15T15:06:39.000Z,995.3
2022-09-15T15:07:52.000Z,995.4
2022-09-15T15:09:04.000Z,995.3
2022-09-15T15:10:16.000Z,995.3
2022-09-15T15:11:28.000Z,995.3
2022-09-15T15:12:40.000Z,995.4
2022-09-15T15:13:53.000Z,995.4
2022-09-15T15:15:05.000Z,995.4
2022-09-15T15:16:17.000Z,995.4
2022-09-15T15:17:29.000Z,995.4
2022-09-15T15:18:41.000Z,995.5
2022-09-15T15:19:52.000Z,995.4
2022-09-15T15:21:05.000Z,995.5
2022-09-15T15:22:17.000Z,995.4
2022-09-15T15:23:29.000Z,995.4
2022-09-15T15:24:41.000Z,995.4
2022-09-15T15:25:53.000Z,995.4
2022-09-15T15:27:06.000Z,995.4
2022-09-15T15:28:18.000Z,995.4
2022-09-15T15:29:30.000Z,995.5